Pagrindinis puslapis
METAR-TAF:

METAR-TAF

Oro uostai :

Bostonas, Masačusetsas, Jungtinės Amerikos Valstijos

platuma: 42-21-38N, ilguma: 071-00-38W, Aukštis: 6 m

Dabartinis oras

Ataskaita buvo paskelbta 1 valandą ir 2 minutes, ne 02:54 UTC
Vėjas 9 kt iš Vakarų
Temperatūra 6°C
Drėgmė 36%
Slėgis 1021 hPa
Matomumas: 16.1 km
Mažai debesys ne aukštis 24000 ft

METAR: KBOS 230254Z 28009KT 10SM FEW240 06/M08 A3015 RMK AO2 SLP209 T00561083 51007

Laikas: 22:56 (03:56 UTC)

Prognozė

Ataskaita buvo paskelbta 4 valandos ir 36 minutes, ne 23:20 UTC
Prognozė galioja nuo 23 metu 00 UTC su 24 metu 06 UTC
Vėjas 10 kt iš Vakarų
Matomumas: 10 km
Giedras dangus
Nuo 23 metu 0600 UTC
Vėjas 5 kt iš Vakarų
Matomumas: 10 km
Giedras dangus
Nuo 23 metu 1400 UTC
Vėjas 10 kt iš Vakarų
Matomumas: 10 km
Giedras dangus
Nuo 23 metu 2300 UTC
Vėjas 5 kt iš Pietvakarių
Matomumas: 10 km
Mažai debesys ne aukštis 25000 ft

TAF: KBOS 222320Z 2300/2406 27010KT P6SM SKC FM230600 26005KT P6SM SKC FM231400 26010KT P6SM SKC FM232300 23005KT P6SM FEW250

Orai ataskaitas ir orų prognozės (METAR, TAF).

turimą stotys yra geltonos ir raudonos taškus žemėlapyje.

Perkelti pele per norėdami pamatyti stoties vardą.

Tada spustelėkite, norėdami matyti oro stebėjimo ir prognozės.

Norėdami pakeisti žemėlapį: spustelėkite ant žalios mygtukų su juodo kryžiaus žemyn,; žalią mygtuką su brūkšneliu, jei norite nutolinti; arba žalių rodyklių gretimoms žemėlapius.


METAR-TAF: